createdAt,value
2022-09-06T00:00:18.063Z,101500.84
2022-09-06T00:02:55.697Z,101494.47
2022-09-06T00:05:23.304Z,101489.59
2022-09-06T00:07:50.579Z,101496.59
2022-09-06T00:10:17.889Z,101488.75
2022-09-06T00:12:45.653Z,101487.63
2022-09-06T00:15:12.928Z,101489.00
2022-09-06T00:17:40.194Z,101492.69
2022-09-06T00:20:10.744Z,101494.97
2022-09-06T00:22:38.981Z,101488.19
2022-09-06T00:25:07.328Z,101484.25
2022-09-06T00:27:35.253Z,101493.66
2022-09-06T00:30:04.769Z,101494.47
2022-09-06T00:32:32.796Z,101481.81
2022-09-06T00:35:00.208Z,101480.06
2022-09-06T00:37:27.387Z,101467.38
2022-09-06T00:39:54.705Z,101477.34
2022-09-06T00:42:22.502Z,101480.59
2022-09-06T00:44:50.520Z,101478.06
2022-09-06T00:47:18.236Z,101473.69
2022-09-06T00:49:50.332Z,101469.38
2022-09-06T00:52:19.826Z,101482.81
2022-09-06T00:54:49.250Z,101482.09
2022-09-06T00:57:17.917Z,101483.94
2022-09-06T00:59:46.828Z,101474.56
2022-09-06T01:02:14.791Z,101486.34
2022-09-06T01:04:45.057Z,101474.94
2022-09-06T01:07:24.267Z,101485.88
2022-09-06T01:10:22.480Z,101488.66
2022-09-06T01:13:19.358Z,101489.09
2022-09-06T01:16:24.238Z,101482.19
2022-09-06T01:19:13.130Z,101487.53
2022-09-06T01:21:51.128Z,101487.47
2022-09-06T01:24:42.770Z,101490.81
2022-09-06T01:27:31.148Z,101490.38
2022-09-06T01:30:08.215Z,101475.28
2022-09-06T01:32:42.555Z,101484.91
2022-09-06T01:35:12.808Z,101486.69
2022-09-06T01:37:40.342Z,101477.38
2022-09-06T01:40:08.567Z,101483.69
2022-09-06T01:42:37.928Z,101488.81
2022-09-06T01:45:30.656Z,101490.44
2022-09-06T01:48:11.610Z,101493.00
2022-09-06T01:50:45.786Z,101510.25
2022-09-06T01:53:52.760Z,101502.41
2022-09-06T01:56:28.104Z,101508.53
2022-09-06T01:59:21.704Z,101500.34
2022-09-06T02:02:02.708Z,101507.69
2022-09-06T02:04:45.100Z,101508.91
2022-09-06T02:07:15.871Z,101506.13
2022-09-06T02:09:45.320Z,101511.50
2022-09-06T02:12:14.814Z,101506.41
2022-09-06T02:14:58.240Z,101513.22
2022-09-06T02:17:34.410Z,101507.22
2022-09-06T02:20:09.482Z,101508.41
2022-09-06T02:22:43.859Z,101516.09
2022-09-06T02:25:18.612Z,101513.16
2022-09-06T02:27:45.970Z,101517.69
2022-09-06T02:30:13.870Z,101515.09
2022-09-06T02:32:50.967Z,101510.47
2022-09-06T02:35:18.462Z,101506.28
2022-09-06T02:37:45.808Z,101496.91
2022-09-06T02:40:13.251Z,101500.56
2022-09-06T02:42:41.914Z,101486.97
2022-09-06T02:45:09.527Z,101496.31
2022-09-06T02:47:36.932Z,101482.00
2022-09-06T02:50:04.580Z,101478.00
2022-09-06T02:52:31.800Z,101475.06
2022-09-06T02:54:58.958Z,101488.94
2022-09-06T02:57:26.309Z,101477.25
2022-09-06T02:59:53.482Z,101476.31
2022-09-06T03:02:20.746Z,101490.38
2022-09-06T03:04:48.163Z,101485.13
2022-09-06T03:07:15.358Z,101481.81
2022-09-06T03:09:42.676Z,101475.19
2022-09-06T03:12:10.035Z,101475.22
2022-09-06T03:14:37.744Z,101472.41
2022-09-06T03:17:05.116Z,101470.19
2022-09-06T03:19:32.597Z,101478.91
2022-09-06T03:21:59.808Z,101478.50
2022-09-06T03:24:27.022Z,101476.66
2022-09-06T03:26:54.436Z,101475.69
2022-09-06T03:29:21.870Z,101466.38
2022-09-06T03:31:49.090Z,101469.41
2022-09-06T03:34:16.503Z,101470.50
2022-09-06T03:36:43.752Z,101471.34
2022-09-06T03:39:11.089Z,101472.31
2022-09-06T03:41:38.500Z,101480.91
2022-09-06T03:44:05.709Z,101481.13
2022-09-06T03:46:32.981Z,101487.13
2022-09-06T03:49:02.040Z,101481.00
2022-09-06T03:51:29.286Z,101476.75
2022-09-06T03:53:57.638Z,101476.13
2022-09-06T03:56:25.067Z,101475.88
2022-09-06T03:58:52.247Z,101471.13
2022-09-06T04:01:19.530Z,101482.25
2022-09-06T04:03:47.237Z,101482.66
2022-09-06T04:06:14.498Z,101478.72
2022-09-06T04:08:41.707Z,101481.91
2022-09-06T04:11:09.419Z,101479.84
2022-09-06T04:13:37.078Z,101480.22
2022-09-06T04:16:05.558Z,101468.59
2022-09-06T04:18:33.589Z,101472.00
2022-09-06T04:21:00.768Z,101468.13
2022-09-06T04:23:29.406Z,101472.50
2022-09-06T04:25:58.728Z,101478.41
2022-09-06T04:28:27.010Z,101474.75
2022-09-06T04:30:58.905Z,101474.00
2022-09-06T04:33:29.742Z,101471.78
2022-09-06T04:35:58.592Z,101472.28
2022-09-06T04:38:34.815Z,101467.41
2022-09-06T04:41:02.535Z,101476.66
2022-09-06T04:43:29.759Z,101476.31
2022-09-06T04:46:02.318Z,101465.56
2022-09-06T04:48:29.774Z,101484.28
2022-09-06T04:50:56.976Z,101479.91
2022-09-06T04:53:24.155Z,101483.56
2022-09-06T04:55:51.574Z,101489.56
2022-09-06T04:58:18.865Z,101486.41
2022-09-06T05:00:46.155Z,101490.22
2022-09-06T05:03:13.582Z,101488.47
2022-09-06T05:05:40.835Z,101480.16
2022-09-06T05:08:08.064Z,101485.78
2022-09-06T05:10:35.594Z,101478.69
2022-09-06T05:13:02.760Z,101471.94
2022-09-06T05:15:30.060Z,101474.53
2022-09-06T05:18:06.804Z,101479.41
2022-09-06T05:20:34.082Z,101484.56
2022-09-06T05:23:01.791Z,101480.41
2022-09-06T05:25:29.073Z,101473.19
2022-09-06T05:27:56.227Z,101480.66
2022-09-06T05:30:23.776Z,101481.63
2022-09-06T05:32:51.397Z,101489.97
2022-09-06T05:35:18.639Z,101482.34
2022-09-06T05:37:46.029Z,101472.78
2022-09-06T05:40:13.263Z,101487.91
2022-09-06T05:42:41.165Z,101481.41
2022-09-06T05:45:08.812Z,101480.53
2022-09-06T05:47:36.141Z,101488.72
2022-09-06T05:50:03.622Z,101476.38
2022-09-06T05:52:31.058Z,101490.81
2022-09-06T05:54:58.233Z,101489.88
2022-09-06T05:57:25.411Z,101495.94
2022-09-06T05:59:53.697Z,101483.88
2022-09-06T06:02:22.056Z,101497.78
2022-09-06T06:04:49.707Z,101488.97
2022-09-06T06:07:17.112Z,101500.47
2022-09-06T06:09:44.362Z,101504.19
2022-09-06T06:12:11.651Z,101494.56
2022-09-06T06:14:39.592Z,101497.78
2022-09-06T06:17:06.936Z,101495.13
2022-09-06T06:19:34.133Z,101500.72
2022-09-06T06:22:01.894Z,101490.59
2022-09-06T06:24:29.358Z,101501.69
2022-09-06T06:26:56.693Z,101496.13
2022-09-06T06:29:25.434Z,101477.88
2022-09-06T06:31:52.740Z,101486.19
2022-09-06T06:34:22.012Z,101484.25
2022-09-06T06:36:49.499Z,101494.72
2022-09-06T06:39:16.675Z,101488.34
2022-09-06T06:41:43.956Z,101487.69
2022-09-06T06:44:46.813Z,101490.28
2022-09-06T06:47:14.424Z,101480.91
2022-09-06T06:49:41.671Z,101481.03
2022-09-06T06:52:09.055Z,101486.69
2022-09-06T06:54:37.537Z,101475.28
2022-09-06T06:57:05.120Z,101463.47
2022-09-06T06:59:32.542Z,101475.97
2022-09-06T07:01:59.893Z,101482.41
2022-09-06T07:04:27.263Z,101481.41
2022-09-06T07:12:30.904Z,101490.34
2022-09-06T07:14:58.046Z,101482.47
2022-09-06T07:17:25.218Z,101487.50
2022-09-06T07:22:40.981Z,101484.63
2022-09-06T07:25:10.168Z,101481.66
2022-09-06T07:27:52.846Z,101485.16
2022-09-06T07:30:20.516Z,101483.75
2022-09-06T07:32:48.825Z,101473.22
2022-09-06T07:35:16.655Z,101466.75
2022-09-06T07:37:44.154Z,101475.94
2022-09-06T07:40:11.749Z,101477.94
2022-09-06T07:42:39.112Z,101482.63
2022-09-06T07:45:07.023Z,101475.03
2022-09-06T07:53:14.883Z,101471.63
2022-09-06T07:55:45.266Z,101456.56
2022-09-06T07:58:12.597Z,101462.84
2022-09-06T08:00:41.423Z,101458.81
2022-09-06T08:03:09.330Z,101458.44
2022-09-06T08:11:14.109Z,101460.84
2022-09-06T08:13:42.375Z,101455.44
2022-09-06T08:16:11.342Z,101464.22
2022-09-06T08:18:38.973Z,101463.06
2022-09-06T08:21:12.055Z,101455.53
2022-09-06T08:23:44.238Z,101449.38
2022-09-06T08:26:12.114Z,101452.72
2022-09-06T08:28:39.388Z,101459.47
2022-09-06T08:31:11.958Z,101450.06
2022-09-06T08:33:41.054Z,101444.31
2022-09-06T08:36:09.125Z,101439.50
2022-09-06T08:38:36.911Z,101448.44
2022-09-06T08:41:26.214Z,101448.63
2022-09-06T08:47:01.266Z,101434.53
2022-09-06T08:49:36.601Z,101441.50
2022-09-06T08:52:23.019Z,101430.31
2022-09-06T08:55:24.335Z,101437.28
2022-09-06T08:58:19.080Z,101425.94
2022-09-06T09:01:02.708Z,101428.22
2022-09-06T09:03:36.979Z,101418.38
2022-09-06T09:06:07.181Z,101420.69
2022-09-06T09:08:46.511Z,101429.03
2022-09-06T09:11:33.729Z,101429.09
2022-09-06T09:14:20.760Z,101411.84
2022-09-06T09:16:52.703Z,101417.34
2022-09-06T09:19:20.254Z,101416.63
2022-09-06T09:21:47.970Z,101426.91
2022-09-06T09:24:16.006Z,101423.53
2022-09-06T09:27:12.856Z,101421.22
2022-09-06T09:32:57.320Z,101414.56
2022-09-06T09:35:42.261Z,101402.03
2022-09-06T09:38:12.687Z,101399.72
2022-09-06T09:40:52.686Z,101406.91
2022-09-06T09:43:22.829Z,101402.34
2022-09-06T09:46:10.540Z,101401.63
2022-09-06T09:48:39.227Z,101387.69
2022-09-06T09:51:27.829Z,101398.69
2022-09-06T09:53:55.309Z,101392.31
2022-09-06T09:56:43.627Z,101394.03
2022-09-06T09:59:28.006Z,101388.41
2022-09-06T10:02:00.105Z,101388.97
2022-09-06T10:04:45.708Z,101368.84
2022-09-06T10:07:19.883Z,101382.88
2022-09-06T10:09:50.194Z,101374.84
2022-09-06T10:12:38.960Z,101370.94
2022-09-06T10:15:09.056Z,101373.06
2022-09-06T10:17:47.716Z,101370.66
2022-09-06T10:20:15.258Z,101387.34
2022-09-06T10:23:00.341Z,101378.03
2022-09-06T10:25:36.998Z,101378.44
2022-09-06T10:28:13.105Z,101370.38
2022-09-06T10:31:25.783Z,101373.03
2022-09-06T10:34:17.569Z,101375.53
2022-09-06T10:37:08.116Z,101368.75
2022-09-06T10:39:35.288Z,101370.44
2022-09-06T10:42:24.673Z,101366.78
2022-09-06T10:45:01.829Z,101362.28
2022-09-06T10:47:38.840Z,101358.09
2022-09-06T10:50:07.118Z,101366.00
2022-09-06T10:52:41.114Z,101376.13
2022-09-06T10:55:14.279Z,101362.13
2022-09-06T11:00:41.985Z,101364.69
2022-09-06T11:06:20.347Z,101366.25
2022-09-06T11:09:07.852Z,101368.44
2022-09-06T11:11:48.767Z,101354.66
2022-09-06T11:14:18.764Z,101346.19
2022-09-06T11:16:51.967Z,101359.84
2022-09-06T11:19:28.630Z,101345.47
2022-09-06T11:22:09.906Z,101346.00
2022-09-06T11:25:08.253Z,101341.59
2022-09-06T11:27:40.364Z,101338.28
2022-09-06T11:30:15.818Z,101347.09
2022-09-06T11:32:49.095Z,101342.75
2022-09-06T11:35:43.073Z,101333.16
2022-09-06T11:38:16.182Z,101328.19
2022-09-06T11:40:46.851Z,101330.91
2022-09-06T11:43:48.894Z,101323.31
2022-09-06T11:46:34.729Z,101317.84
2022-09-06T11:49:09.192Z,101322.22
2022-09-06T11:51:42.303Z,101308.66
2022-09-06T11:54:18.824Z,101309.22
2022-09-06T11:56:46.242Z,101304.31
2022-09-06T11:59:16.011Z,101300.13
2022-09-06T12:02:01.358Z,101298.75
2022-09-06T12:05:00.409Z,101286.72
2022-09-06T12:07:29.849Z,101286.56
2022-09-06T12:10:01.126Z,101288.13
2022-09-06T12:12:49.040Z,101284.63
2022-09-06T12:15:43.760Z,101282.75
2022-09-06T12:18:48.886Z,101283.16
2022-09-06T12:21:47.538Z,101285.34
2022-09-06T12:24:33.557Z,101287.38
2022-09-06T12:27:44.423Z,101276.56
2022-09-06T12:30:13.652Z,101268.09
2022-09-06T12:32:48.526Z,101263.38
2022-09-06T12:38:17.260Z,101272.63
2022-09-06T12:40:48.170Z,101270.06
2022-09-06T12:43:17.529Z,101250.75
2022-09-06T12:45:48.100Z,101252.47
2022-09-06T12:48:32.406Z,101256.41
2022-09-06T12:51:13.576Z,101241.66
2022-09-06T12:53:40.829Z,101235.66
2022-09-06T12:56:12.610Z,101256.03
2022-09-06T12:58:40.238Z,101253.06
2022-09-06T13:01:17.224Z,101251.28
2022-09-06T13:03:58.599Z,101235.94
2022-09-06T13:06:27.529Z,101248.88
2022-09-06T13:08:59.623Z,101240.00
2022-09-06T13:11:34.607Z,101225.34
2022-09-06T13:14:14.062Z,101229.50
2022-09-06T13:16:47.719Z,101234.38
2022-09-06T13:19:18.075Z,101242.06
2022-09-06T13:21:47.108Z,101237.88
2022-09-06T13:24:24.568Z,101243.84
2022-09-06T13:26:53.034Z,101232.56
2022-09-06T13:29:31.084Z,101227.16
2022-09-06T13:32:01.159Z,101230.03
2022-09-06T13:34:31.764Z,101218.06
2022-09-06T13:37:10.372Z,101222.78
2022-09-06T13:39:40.058Z,101224.56
2022-09-06T13:42:10.686Z,101221.78
2022-09-06T13:44:39.684Z,101217.41
2022-09-06T13:47:06.951Z,101218.50
2022-09-06T13:49:34.429Z,101216.44
2022-09-06T13:52:03.586Z,101211.72
2022-09-06T13:54:32.352Z,101218.22
2022-09-06T13:57:01.745Z,101208.59
2022-09-06T13:59:30.380Z,101213.97
2022-09-06T14:02:15.100Z,101217.66
2022-09-06T14:04:42.922Z,101204.81
2022-09-06T14:07:10.215Z,101212.00
2022-09-06T14:09:37.774Z,101199.50
2022-09-06T14:12:07.017Z,101206.66
2022-09-06T14:14:34.445Z,101213.47
2022-09-06T14:17:02.103Z,101211.88
2022-09-06T14:19:32.447Z,101204.50
2022-09-06T14:21:59.630Z,101208.00
2022-09-06T14:24:26.898Z,101200.63
2022-09-06T14:26:54.289Z,101201.25
2022-09-06T14:29:21.497Z,101201.66
2022-09-06T14:31:49.089Z,101193.84
2022-09-06T14:34:16.708Z,101200.91
2022-09-06T14:36:43.968Z,101194.47
2022-09-06T14:39:11.192Z,101193.38
2022-09-06T14:41:38.668Z,101201.56
2022-09-06T14:44:05.847Z,101183.25
2022-09-06T14:46:33.066Z,101179.13
2022-09-06T14:49:07.456Z,101186.28
2022-09-06T14:51:36.974Z,101186.81
2022-09-06T14:54:08.617Z,101181.94
2022-09-06T14:56:36.639Z,101176.91
2022-09-06T14:59:03.948Z,101179.72
2022-09-06T15:01:38.010Z,101174.19
2022-09-06T15:04:09.445Z,101169.69
2022-09-06T15:06:40.362Z,101176.88
2022-09-06T15:09:08.183Z,101153.84
2022-09-06T15:11:36.465Z,101170.94
2022-09-06T15:14:07.919Z,101170.75
2022-09-06T15:16:36.286Z,101167.75
2022-09-06T15:19:03.797Z,101161.03
2022-09-06T15:21:32.118Z,101168.09
2022-09-06T15:24:00.438Z,101160.94
2022-09-06T15:26:27.671Z,101151.06
2022-09-06T15:28:55.167Z,101152.16
2022-09-06T15:31:22.750Z,101149.22
2022-09-06T15:33:51.364Z,101157.38
2022-09-06T15:36:18.940Z,101156.69
2022-09-06T15:38:48.452Z,101140.44
2022-09-06T15:41:17.394Z,101150.06
2022-09-06T15:43:47.578Z,101142.56
2022-09-06T15:46:16.137Z,101139.06
2022-09-06T15:48:48.600Z,101136.56
2022-09-06T15:51:18.463Z,101142.41
2022-09-06T15:53:46.281Z,101136.84
2022-09-06T15:56:15.939Z,101144.41
2022-09-06T15:58:45.858Z,101133.97
2022-09-06T16:01:18.380Z,101120.53
2022-09-06T16:03:49.171Z,101123.38
2022-09-06T16:06:28.234Z,101112.97
2022-09-06T16:09:01.910Z,101120.38
2022-09-06T16:11:30.226Z,101123.31
2022-09-06T16:13:57.631Z,101110.66
2022-09-06T16:16:26.457Z,101098.41
2022-09-06T16:18:53.658Z,101116.06
2022-09-06T16:21:24.542Z,101110.66
2022-09-06T16:24:18.754Z,101110.69
2022-09-06T16:26:46.977Z,101112.88
2022-09-06T16:29:16.489Z,101107.84
2022-09-06T16:31:44.284Z,101103.03
2022-09-06T16:34:13.477Z,101107.72
2022-09-06T16:36:41.717Z,101099.22
2022-09-06T16:39:09.621Z,101094.00
2022-09-06T16:41:41.431Z,101093.69
2022-09-06T16:44:14.527Z,101098.28
2022-09-06T16:46:43.232Z,101091.91
2022-09-06T16:49:10.622Z,101092.03
2022-09-06T16:51:37.874Z,101085.81
2022-09-06T16:54:05.428Z,101095.22
2022-09-06T16:56:35.908Z,101089.75
2022-09-06T16:59:06.780Z,101089.75
2022-09-06T17:01:36.561Z,101086.06
2022-09-06T17:04:05.584Z,101092.84
2022-09-06T17:06:34.251Z,101092.03
2022-09-06T17:09:01.644Z,101090.94
2022-09-06T17:11:29.266Z,101091.59
2022-09-06T17:13:57.676Z,101089.50
2022-09-06T17:16:44.454Z,101092.28
2022-09-06T17:19:13.672Z,101087.34
2022-09-06T17:21:41.121Z,101083.53
2022-09-06T17:24:09.083Z,101091.34
2022-09-06T17:26:38.280Z,101093.34
2022-09-06T17:29:07.225Z,101087.38
2022-09-06T17:31:34.910Z,101092.22
2022-09-06T17:34:02.154Z,101095.75
2022-09-06T17:36:31.799Z,101098.16
2022-09-06T17:39:03.748Z,101102.16
2022-09-06T17:41:37.902Z,101094.31
2022-09-06T17:44:07.509Z,101094.22
2022-09-06T17:46:35.022Z,101096.50
2022-09-06T17:49:02.728Z,101100.47
2022-09-06T17:51:30.118Z,101086.63
2022-09-06T17:53:57.640Z,101093.06
2022-09-06T17:56:25.432Z,101078.00
2022-09-06T17:58:55.319Z,101096.50
2022-09-06T18:01:24.601Z,101100.69
2022-09-06T18:03:53.016Z,101093.06
2022-09-06T18:06:25.199Z,101098.47
2022-09-06T18:08:55.637Z,101105.41
2022-09-06T18:11:29.190Z,101100.03
2022-09-06T18:14:04.959Z,101109.38
2022-09-06T18:16:34.717Z,101103.53
2022-09-06T18:19:04.775Z,101109.78
2022-09-06T18:21:36.789Z,101107.81
2022-09-06T18:24:05.113Z,101102.97
2022-09-06T18:26:32.624Z,101113.91
2022-09-06T18:29:00.438Z,101098.41
2022-09-06T18:31:28.826Z,101101.56
2022-09-06T18:33:59.889Z,101108.22
2022-09-06T18:36:31.946Z,101118.59
2022-09-06T18:39:05.238Z,101108.59
2022-09-06T18:41:52.642Z,101114.31
2022-09-06T18:44:20.554Z,101110.97
2022-09-06T18:46:48.491Z,101106.72
2022-09-06T18:49:17.638Z,101100.19
2022-09-06T18:51:45.860Z,101098.88
2022-09-06T18:54:14.136Z,101108.53
2022-09-06T18:56:42.336Z,101108.53
2022-09-06T18:59:10.903Z,101109.41
2022-09-06T19:01:38.502Z,101105.94
2022-09-06T19:04:07.228Z,101102.16
2022-09-06T19:06:36.471Z,101100.88
2022-09-06T19:09:09.558Z,101101.44
2022-09-06T19:11:37.344Z,101097.88
2022-09-06T19:14:05.737Z,101097.41
2022-09-06T19:16:33.594Z,101088.59
2022-09-06T19:19:03.512Z,101090.19
2022-09-06T19:21:31.412Z,101093.28
2022-09-06T19:24:10.301Z,101092.84
2022-09-06T19:26:41.712Z,101086.53
2022-09-06T19:29:13.786Z,101092.97
2022-09-06T19:31:42.709Z,101079.28
2022-09-06T19:34:14.640Z,101080.19
2022-09-06T19:36:43.866Z,101088.97
2022-09-06T19:39:14.591Z,101086.28
2022-09-06T19:41:46.989Z,101082.88
2022-09-06T19:44:16.725Z,101074.38
2022-09-06T19:46:46.971Z,101069.91
2022-09-06T19:49:16.930Z,101066.91
2022-09-06T19:51:46.648Z,101076.06
2022-09-06T19:54:15.673Z,101067.53
2022-09-06T19:56:44.387Z,101066.28
2022-09-06T19:59:13.341Z,101064.47
2022-09-06T20:01:42.592Z,101055.00
2022-09-06T20:04:11.992Z,101049.84
2022-09-06T20:06:39.520Z,101055.34
2022-09-06T20:09:09.130Z,101063.16
2022-09-06T20:11:39.512Z,101056.44
2022-09-06T20:14:07.359Z,101059.31
2022-09-06T20:16:39.368Z,101052.91
2022-09-06T20:19:09.538Z,101059.47
2022-09-06T20:21:36.806Z,101063.75
2022-09-06T20:24:04.122Z,101046.41
2022-09-06T20:26:31.701Z,101053.19
2022-09-06T20:29:01.738Z,101051.94
2022-09-06T20:31:30.948Z,101049.25
2022-09-06T20:34:00.313Z,101045.84
2022-09-06T20:36:27.972Z,101044.00
2022-09-06T20:38:55.398Z,101045.19
2022-09-06T20:41:24.687Z,101049.13
2022-09-06T20:44:00.919Z,101043.25
2022-09-06T20:46:30.877Z,101050.91
2022-09-06T20:49:01.997Z,101044.72
2022-09-06T20:51:29.748Z,101045.41
2022-09-06T20:53:59.648Z,101043.47
2022-09-06T20:56:36.218Z,101044.44
2022-09-06T20:59:06.526Z,101044.03
2022-09-06T21:01:36.621Z,101041.47
2022-09-06T21:04:06.836Z,101038.69
2022-09-06T21:06:36.431Z,101033.06
2022-09-06T21:09:09.807Z,101038.69
2022-09-06T21:11:38.345Z,101040.34
2022-09-06T21:14:07.891Z,101046.66
2022-09-06T21:16:35.479Z,101046.91
2022-09-06T21:19:05.562Z,101040.63
2022-09-06T21:21:34.821Z,101031.97
2022-09-06T21:24:03.660Z,101040.94
2022-09-06T21:26:31.378Z,101035.28
2022-09-06T21:28:58.981Z,101039.16
2022-09-06T21:31:31.784Z,101036.53
2022-09-06T21:34:03.453Z,101027.13
2022-09-06T21:36:34.014Z,101030.69
2022-09-06T21:39:07.851Z,101032.16
2022-09-06T21:41:37.862Z,101030.97
2022-09-06T21:44:07.185Z,101025.22
2022-09-06T21:46:36.744Z,101032.03
2022-09-06T21:49:07.505Z,101019.63
2022-09-06T21:51:35.732Z,101035.41
2022-09-06T21:54:05.526Z,101035.41
2022-09-06T21:56:37.255Z,101037.06
2022-09-06T21:59:05.547Z,101037.66
2022-09-06T22:01:34.289Z,101036.69
2022-09-06T22:04:02.518Z,101036.91
2022-09-06T22:06:32.141Z,101043.28
2022-09-06T22:09:01.980Z,101036.06
2022-09-06T22:11:34.375Z,101040.75
2022-09-06T22:14:04.763Z,101030.84
2022-09-06T22:16:34.406Z,101032.75
2022-09-06T22:19:04.798Z,101026.56
2022-09-06T22:21:33.585Z,101032.53
2022-09-06T22:24:04.207Z,101031.19
2022-09-06T22:26:33.681Z,101028.50
2022-09-06T22:29:04.439Z,101026.09
2022-09-06T22:31:33.861Z,101029.38
2022-09-06T22:34:01.833Z,101024.13
2022-09-06T22:36:29.519Z,101017.41
2022-09-06T22:38:57.844Z,101022.78
2022-09-06T22:41:30.824Z,101014.75
2022-09-06T22:44:02.637Z,101020.13
2022-09-06T22:46:30.199Z,101009.63
2022-09-06T22:48:58.475Z,101010.34
2022-09-06T22:51:26.229Z,101007.19
2022-09-06T22:53:53.651Z,101013.28
2022-09-06T22:56:21.317Z,101007.91
2022-09-06T22:58:49.027Z,100999.38
2022-09-06T23:01:17.470Z,101013.28
2022-09-06T23:03:45.514Z,101004.13
2022-09-06T23:06:13.189Z,101010.25
2022-09-06T23:08:41.069Z,101007.91
2022-09-06T23:11:11.833Z,101008.63
2022-09-06T23:13:43.882Z,101003.75
2022-09-06T23:16:14.317Z,101007.03
2022-09-06T23:18:42.156Z,101004.38
2022-09-06T23:21:15.493Z,100996.06
2022-09-06T23:23:43.366Z,101002.44
2022-09-06T23:26:14.160Z,100998.91
2022-09-06T23:28:42.100Z,100993.78
2022-09-06T23:31:11.907Z,101002.56
2022-09-06T23:33:40.524Z,100985.34
2022-09-06T23:36:09.871Z,100994.03
2022-09-06T23:38:39.370Z,100978.50
2022-09-06T23:41:08.549Z,100976.44
2022-09-06T23:43:36.582Z,100986.91
2022-09-06T23:46:04.676Z,100989.09
2022-09-06T23:48:32.400Z,100988.13
2022-09-06T23:51:00.115Z,100988.50
2022-09-06T23:53:28.451Z,100974.22
2022-09-06T23:55:55.854Z,100974.97
2022-09-06T23:58:23.237Z,100973.50
